Погода Чупрыновона 2 недели

Подляское воеводство, Польша

18 - 31 июля
  • 18июля
    Сегодня
    +13°
    +26°
    Практически безоблачно
    ВремяПогодаТемператураВлажностьДавлениеВетер, м/сВероятность осадков
    02:00Облачно с прояснениями+19°C67 %747 мм2.6 м/с3 %
    05:00Практически безоблачно+18°C76 %747 мм2.1 м/с26 %
    08:00Практически безоблачно+21°C76 %747 мм1.4 м/с18 %
    11:00Небольшая облачность и лёгкий дождик+23°C62 %748 мм3.9 м/с35 %
    14:00Практически безоблачно+26°C42 %747 мм5.1 м/с20 %
    17:00Небольшая облачность+25°C42 %747 мм4.8 м/с8 %
    20:00Ясно и безоблачно+23°C52 %748 мм3.6 м/с2 %
    23:00Ясно и безоблачно+18°C66 %748 мм3.7 м/с2 %
  • 19июля
    Пятница
    +12°
    +25°
    Ясно и безоблачно
    ВремяПогодаТемператураВлажностьДавлениеВетер, м/сВероятность осадков
    02:00Облачно с прояснениями+15°C78 %748 мм3.1 м/с2 %
    05:00Ясно и безоблачно+14°C89 %748 мм2.9 м/с2 %
    08:00Практически безоблачно+18°C71 %748 мм3.3 м/с2 %
    11:00Ясно и безоблачно+22°C55 %748 мм3.5 м/с2 %
    14:00Ясно и безоблачно+25°C45 %747 мм4.1 м/с2 %
    17:00Ясно и безоблачно+24°C44 %746 мм4.3 м/с2 %
    20:00Ясно и безоблачно+22°C51 %746 мм3.4 м/с2 %
    23:00Ясно и безоблачно+17°C62 %746 мм3.2 м/с2 %
  • 20июля
    Суббота
    +14°
    +26°
    Небольшая облачность
    ВремяПогодаТемператураВлажностьДавлениеВетер, м/сВероятность осадков
    02:00Ясно и безоблачно+14°C77 %745 мм1.9 м/с2 %
    05:00Ясно и безоблачно+12°C90 %744 мм2.2 м/с2 %
    08:00Ясно и безоблачно+17°C70 %744 мм2.4 м/с2 %
    11:00Ясно и безоблачно+22°C49 %744 мм2.9 м/с2 %
    14:00Небольшая облачность+25°C41 %743 мм2.8 м/с2 %
    17:00Облачно с прояснениями+25°C40 %742 мм2.6 м/с2 %
    20:00Ясно и безоблачно+22°C55 %742 мм1.5 м/с2 %
    23:00Ясно и безоблачно+18°C60 %741 мм2.1 м/с2 %
  • 21июля
    Воскресенье
    +15°
    +28°
    Ясно и безоблачно
    ВремяПогодаТемператураВлажностьДавлениеВетер, м/сВероятность осадков
    02:00Практически безоблачно+16°C72 %741 мм2.1 м/с2 %
    05:00Ясно и безоблачно+14°C85 %741 мм1.6 м/с2 %
    08:00Ясно и безоблачно+20°C65 %741 мм1.2 м/с2 %
    11:00Ясно и безоблачно+24°C44 %741 мм1.7 м/с5 %
    14:00Ясно и безоблачно+27°C34 %740 мм2.1 м/с7 %
    17:00Ясно и безоблачно+27°C34 %739 мм2.8 м/с4 %
    20:00Ясно и безоблачно+24°C45 %739 мм2.1 м/с3 %
    23:00Ясно и безоблачно+19°C54 %739 мм2.2 м/с2 %
  • 22июля
    Понедельник
    +16°
    +29°
    Практически безоблачно
    ВремяПогодаТемператураВлажностьДавлениеВетер, м/сВероятность осадков
    02:00Ясно и безоблачно+16°C70 %739 мм1.8 м/с2 %
    05:00Ясно и безоблачно+15°C78 %739 мм1.4 м/с2 %
    08:00Ясно и безоблачно+21°C58 %740 мм1.1 м/с2 %
    11:00Ясно и безоблачно+27°C37 %740 мм0.8 м/с3 %
    14:00Практически безоблачно+29°C32 %739 мм1.9 м/с6 %
    17:00Облачно с прояснениями+27°C30 %739 мм1.9 м/с10 %
    20:00Облачно с прояснениями+24°C53 %739 мм1.2 м/с14 %
    23:00Облачно с прояснениями+19°C58 %739 мм1.9 м/с18 %
Мы используем cookies
Соглашаюсь